Time;durP1;ratioP1;P1;durP2;ratioP2;P2;SDS_P1;SDS_P2;PMS_P1;PMS_P2;Temp;Humidity;BMP_temperature;BMP_pressure;BME280_temperature;BME280_humidity;BME280_pressure;Samples;Min_cycle;Max_cycle;Signal;HPM_P1;HPM_P2
2022/02/22 00:01:31;;;;;;;3.85;3.05;;;;;;;19.74;35.70;98244.16;1751213;81;20949;-56
2022/02/22 00:03:58;;;;;;;3.80;3.17;;;;;;;19.53;36.15;98244.48;1754862;81;22465;-56
2022/02/22 00:06:24;;;;;;;3.75;3.20;;;;;;;19.68;36.00;98248.74;1749477;81;21444;-56
2022/02/22 00:08:51;;;;;;;4.30;3.70;;;;;;;19.72;35.80;98246.59;1754749;81;21369;-55
2022/02/22 00:11:17;;;;;;;5.50;4.58;;;;;;;19.72;35.73;98240.83;1751052;81;21516;-55
2022/02/22 00:13:45;;;;;;;3.70;3.30;;;;;;;19.71;35.63;98237.77;1744860;81;20936;-55
2022/02/22 00:16:11;;;;;;;4.60;3.40;;;;;;;19.75;35.47;98237.82;1750553;80;22804;-55
2022/02/22 00:18:38;;;;;;;4.67;2.92;;;;;;;19.80;35.51;98240.86;1750317;79;21420;-55
2022/02/22 00:21:05;;;;;;;4.30;3.08;;;;;;;19.91;35.52;98246.89;1748622;80;21605;-56
2022/02/22 00:23:31;;;;;;;3.17;2.85;;;;;;;19.84;35.46;98243.54;1751626;80;21491;-55
2022/02/22 00:25:58;;;;;;;3.37;2.77;;;;;;;19.72;35.52;98239.94;1765565;79;21359;-56
2022/02/22 00:28:25;;;;;;;3.95;3.20;;;;;;;19.55;35.60;98236.33;1776653;79;22818;-55
2022/02/22 00:30:52;;;;;;;3.47;3.17;;;;;;;19.61;35.62;98245.05;1777469;79;21678;-56
2022/02/22 00:33:19;;;;;;;3.25;2.95;;;;;;;19.33;36.35;98236.38;1771773;79;21494;-55
2022/02/22 00:35:46;;;;;;;5.28;3.80;;;;;;;19.29;36.25;98237.65;1742695;80;20978;-55
2022/02/22 00:38:13;;;;;;;4.60;3.52;;;;;;;19.30;36.12;98242.00;1747362;80;21575;-55
2022/02/22 00:40:39;;;;;;;3.75;3.35;;;;;;;19.21;36.10;98241.09;1763182;80;22670;-55
2022/02/22 00:43:06;;;;;;;3.75;3.00;;;;;;;19.22;36.06;98238.28;1771112;80;20948;-56
2022/02/22 00:45:33;;;;;;;4.40;3.37;;;;;;;19.23;36.30;98242.63;1782758;78;20924;-56
2022/02/22 00:48:00;;;;;;;4.08;3.70;;;;;;;19.30;36.31;98250.00;1774278;78;21735;-56
2022/02/22 00:50:28;;;;;;;5.12;3.60;;;;;;;19.34;36.14;98248.18;1773117;78;20997;-56
2022/02/22 00:52:56;;;;;;;4.90;3.95;;;;;;;19.22;36.19;98245.44;1744749;80;21475;-56
2022/02/22 00:55:24;;;;;;;5.80;3.67;;;;;;;19.13;36.35;98236.54;1782281;78;21596;-55
2022/02/22 00:57:51;;;;;;;;;;;;;;;19.17;36.54;98239.73;1758170;80;21549;-55
2022/02/22 01:00:18;;;;;;;5.30;4.03;;;;;;;19.05;36.97;98242.64;1764714;79;20873;-55
2022/02/22 01:02:47;;;;;;;4.20;3.83;;;;;;;19.26;36.63;98245.47;1773786;79;21449;-55
2022/02/22 01:05:14;;;;;;;5.22;3.75;;;;;;;19.04;36.81;98244.12;1746169;80;22716;-55
2022/02/22 01:07:41;;;;;;;3.85;3.45;;;;;;;18.83;37.01;98244.44;1762517;80;20976;-55
2022/02/22 01:10:09;;;;;;;4.47;3.58;;;;;;;18.83;37.48;98247.92;1779833;78;21515;-56
2022/02/22 01:12:35;;;;;;;4.65;3.90;;;;;;;18.82;37.63;98247.60;1775234;78;21396;-55
2022/02/22 01:15:03;;;;;;;4.50;3.95;;;;;;;18.79;37.64;98248.36;1774854;78;21414;-56
2022/02/22 01:17:31;;;;;;;7.00;4.30;;;;;;;18.76;37.69;98248.19;1769234;78;21414;-55
2022/02/22 01:19:58;;;;;;;5.97;3.85;;;;;;;18.65;37.90;98253.23;1774861;80;21398;-55
2022/02/22 01:22:25;;;;;;;4.90;3.85;;;;;;;18.74;37.87;98250.16;1766356;78;21104;-55
2022/02/22 01:24:52;;;;;;;5.55;4.17;;;;;;;18.60;38.21;98255.49;1778164;78;21623;-56
2022/02/22 01:27:19;;;;;;;5.97;4.42;;;;;;;18.51;38.48;98256.89;1743577;80;20993;-55
2022/02/22 01:29:46;;;;;;;4.60;3.98;;;;;;;18.46;38.37;98261.34;1756648;81;22721;-55
2022/02/22 01:32:13;;;;;;;5.12;4.62;;;;;;;18.35;38.88;98260.22;1757752;80;21484;-56
2022/02/22 01:34:40;;;;;;;6.60;4.85;;;;;;;18.74;38.37;98253.30;1761806;80;21513;-55
2022/02/22 01:37:07;;;;;;;5.47;4.57;;;;;;;18.81;38.18;98251.74;1754975;79;21327;-55
2022/02/22 01:39:34;;;;;;;5.60;4.53;;;;;;;18.58;38.10;98246.00;1747193;79;21397;-56
2022/02/22 01:42:01;;;;;;;5.42;4.22;;;;;;;18.54;38.59;98254.77;1753413;81;22500;-56
2022/02/22 01:44:28;;;;;;;4.95;4.10;;;;;;;18.76;38.41;98261.50;1753063;81;27878;-56
2022/02/22 01:47:00;;;;;;;7.53;5.03;;;;;;;18.79;38.25;98268.33;1752830;81;21699;-56
2022/02/22 01:49:26;;;;;;;6.47;4.60;;;;;;;18.93;37.93;98269.18;1754198;79;21488;-56
2022/02/22 01:51:53;;;;;;;4.80;4.20;;;;;;;18.78;38.05;98262.65;1729348;81;21469;-55
2022/02/22 01:54:21;;;;;;;5.03;4.45;;;;;;;18.68;38.39;98266.72;1748795;80;22666;-56
2022/02/22 01:56:48;;;;;;;7.40;4.78;;;;;;;18.54;38.80;98267.25;1755586;79;21440;-56
2022/02/22 01:59:15;;;;;;;6.28;4.47;;;;;;;18.75;38.27;98269.13;1748975;81;21351;-56
2022/02/22 02:01:43;;;;;;;7.17;5.30;;;;;;;18.68;38.28;98270.24;1756335;81;20948;-56
2022/02/22 02:04:09;;;;;;;5.67;5.00;;;;;;;18.72;38.12;98268.09;1750985;80;21480;-56
2022/02/22 02:06:37;;;;;;;4.75;4.35;;;;;;;18.64;38.48;98268.02;1753691;79;22466;-55
2022/02/22 02:09:05;;;;;;;5.62;4.62;;;;;;;18.70;38.44;98266.58;1751871;80;21319;-56
2022/02/22 02:11:47;;;;;;;7.65;5.45;;;;;;;18.55;38.57;98264.92;1749298;81;21489;-56
2022/02/22 02:14:14;;;;;;;8.10;5.60;;;;;;;18.71;38.31;98258.95;1734193;80;21442;-56
2022/02/22 02:16:41;;;;;;;6.60;5.42;;;;;;;18.64;38.29;98249.38;1747248;81;21468;-56
2022/02/22 02:19:11;;;;;;;5.25;4.62;;;;;;;18.75;38.19;98252.33;1749721;81;22494;-56
2022/02/22 02:21:41;;;;;;;6.58;5.37;;;;;;;18.81;38.08;98250.41;1754444;81;21400;-56
2022/02/22 02:24:14;;;;;;;5.70;5.17;;;;;;;18.82;37.94;98252.09;1754937;79;21482;-56
2022/02/22 02:26:42;;;;;;;6.17;5.05;;;;;;;18.70;38.02;98258.59;1772088;77;21353;-56
2022/02/22 02:29:10;;;;;;;7.15;4.78;;;;;;;18.43;38.56;98255.81;1783716;79;21386;-56
2022/02/22 02:31:38;;;;;;;5.30;4.58;;;;;;;18.42;38.67;98255.95;1780545;78;22513;-56
2022/02/22 02:34:06;;;;;;;4.92;4.42;;;;;;;18.55;38.33;98256.94;1791944;77;21310;-56
2022/02/22 02:36:35;;;;;;;5.75;5.05;;;;;;;18.55;38.29;98262.25;1786228;79;21378;-56
2022/02/22 02:39:03;;;;;;;6.05;4.25;;;;;;;18.64;38.12;98266.17;1790671;79;21426;-56
2022/02/22 02:41:30;;;;;;;4.83;4.33;;;;;;;18.77;37.98;98278.30;1785429;79;21117;-56
2022/02/22 02:44:05;;;;;;;6.15;4.83;;;;;;;18.93;37.83;98288.29;1783148;79;22462;-55
2022/02/22 02:46:32;;;;;;;5.53;5.00;;;;;;;18.91;37.72;98295.13;1784953;78;20928;-56
2022/02/22 02:48:59;;;;;;;6.20;4.80;;;;;;;18.85;37.60;98298.38;1787383;79;22283;-56
2022/02/22 02:51:26;;;;;;;5.58;4.87;;;;;;;18.87;37.56;98297.73;1792526;77;21492;-55
2022/02/22 02:53:54;;;;;;;4.65;4.25;;;;;;;18.91;37.66;98297.79;1779681;77;21395;-55
2022/02/22 02:56:23;;;;;;;5.83;4.60;;;;;;;18.70;38.04;98296.69;1788955;79;21849;-55
2022/02/22 02:58:56;;;;;;;6.45;4.85;;;;;;;18.71;37.85;98294.88;1790219;77;21484;-56
2022/02/22 03:01:24;;;;;;;6.25;5.05;;;;;;;18.71;37.69;98302.37;1780351;77;21531;-55
2022/02/22 03:03:51;;;;;;;;;;;;;;;18.77;37.61;98309.75;1786707;77;21404;-55
2022/02/22 03:06:18;;;;;;;5.62;4.97;;;;;;;18.68;37.75;98304.84;1792559;77;20403;-57
2022/02/22 03:08:45;;;;;;;6.20;4.92;;;;;;;18.84;37.65;98308.20;1790376;77;22466;-56
2022/02/22 03:11:12;;;;;;;5.65;5.10;;;;;;;18.96;37.36;98303.98;1791405;77;21327;-55
2022/02/22 03:13:39;;;;;;;5.80;5.20;;;;;;;18.85;37.43;98317.02;1787618;78;21317;-56
2022/02/22 03:16:05;;;;;;;7.62;5.53;;;;;;;18.80;37.37;98320.14;1790327;77;21569;-57
2022/02/22 03:18:34;;;;;;;5.60;4.80;;;;;;;18.70;37.73;98322.48;1790616;79;21552;-56
2022/02/22 03:21:02;;;;;;;7.42;5.12;;;;;;;18.75;37.76;98332.20;1777717;78;21409;-55
2022/02/22 03:23:29;;;;;;;5.60;5.03;;;;;;;18.83;37.46;98337.13;1785802;77;20927;-56
2022/02/22 03:25:55;;;;;;;7.42;6.12;;;;;;;18.86;37.35;98338.67;1788384;77;21480;-55
2022/02/22 03:28:22;;;;;;;6.20;5.10;;;;;;;18.81;37.32;98344.43;1781975;80;21443;-56
2022/02/22 03:30:49;;;;;;;5.72;4.95;;;;;;;18.85;37.43;98340.50;1782068;78;21474;-55
2022/02/22 03:33:16;;;;;;;5.58;5.05;;;;;;;18.98;37.31;98341.95;1772889;78;21477;-55
2022/02/22 03:35:43;;;;;;;6.15;5.55;;;;;;;18.96;37.17;98339.94;1778396;79;21603;-55
2022/02/22 03:38:10;;;;;;;7.40;5.72;;;;;;;18.80;37.27;98346.77;1772924;78;21509;-56
2022/02/22 03:40:37;;;;;;;6.75;5.15;;;;;;;18.74;37.29;98351.80;1777697;79;21484;-55
2022/02/22 03:43:04;;;;;;;5.22;4.45;;;;;;;18.72;37.51;98354.61;1781533;78;21503;-56
2022/02/22 03:45:31;;;;;;;6.62;5.17;;;;;;;18.57;37.69;98348.11;1781008;80;22455;-56
2022/02/22 03:47:58;;;;;;;6.40;5.67;;;;;;;18.70;37.37;98349.93;1782073;80;21449;-56
2022/02/22 03:50:25;;;;;;;6.47;5.30;;;;;;;18.72;37.28;98355.94;1780116;80;21533;-55
2022/02/22 03:52:53;;;;;;;7.95;5.80;;;;;;;18.71;37.27;98357.45;1782045;80;21482;-56
2022/02/22 03:55:22;;;;;;;6.35;5.30;;;;;;;18.59;37.51;98358.11;1779455;80;21512;-55
2022/02/22 03:57:48;;;;;;;7.85;5.87;;;;;;;18.51;37.73;98361.52;1768639;78;22715;-55
2022/02/22 04:00:21;;;;;;;6.97;6.15;;;;;;;18.55;37.67;98362.06;1777979;80;21416;-56
2022/02/22 04:02:48;;;;;;;6.50;5.83;;;;;;;18.45;37.56;98364.27;1776480;78;21011;-56
2022/02/22 04:05:16;;;;;;;6.40;5.73;;;;;;;18.16;38.15;98360.41;1756183;79;21523;-56
2022/02/22 04:07:42;;;;;;;7.75;5.40;;;;;;;18.26;38.15;98362.53;1759575;79;21494;-56
2022/02/22 04:10:10;;;;;;;7.47;5.42;;;;;;;18.43;37.87;98364.09;1758470;79;21590;-55
2022/02/22 04:12:37;;;;;;;6.37;5.75;;;;;;;18.37;37.83;98371.33;1748034;81;21500;-55
2022/02/22 04:15:07;;;;;;;7.20;5.72;;;;;;;18.28;37.88;98369.87;1758687;79;21318;-56
2022/02/22 04:17:34;;;;;;;6.28;5.25;;;;;;;18.38;37.74;98369.00;1768194;80;21461;-55
2022/02/22 04:20:01;;;;;;;6.35;5.70;;;;;;;18.43;37.78;98376.06;1771483;80;21556;-55
2022/02/22 04:22:28;;;;;;;8.00;6.30;;;;;;;18.65;37.53;98382.33;1776134;80;22826;-57
2022/02/22 04:24:54;;;;;;;7.75;6.92;;;;;;;18.64;37.42;98381.14;1759247;81;21503;-56
2022/02/22 04:27:21;;;;;;;7.50;6.58;;;;;;;18.68;37.25;98378.53;1788128;78;21359;-55
2022/02/22 04:29:48;;;;;;;6.70;5.80;;;;;;;18.57;37.36;98385.37;1806455;77;21512;-55
2022/02/22 04:32:14;;;;;;;10.05;6.17;;;;;;;18.43;37.65;98383.55;1800655;77;21549;-55
2022/02/22 04:34:41;;;;;;;10.58;6.90;;;;;;;18.55;37.65;98382.03;1804418;78;22723;-55
2022/02/22 04:37:13;;;;;;;7.97;6.17;;;;;;;18.55;37.50;98385.52;1801541;79;21344;-56
2022/02/22 04:40:32;;;;;;;10.05;6.78;;;;;;;15.97;43.68;98387.00;1832795;77;22429;-54
2022/02/22 04:42:59;;;;;;;7.80;6.60;;;;;;;18.08;38.30;98389.53;1791617;78;21554;-54
2022/02/22 04:45:26;;;;;;;7.92;6.25;;;;;;;18.09;38.16;98385.91;1795816;78;21848;-56
2022/02/22 04:47:56;;;;;;;11.47;7.00;;;;;;;18.28;38.02;98383.17;1793537;78;21592;-55
2022/02/22 04:50:22;;;;;;;9.53;6.87;;;;;;;18.32;37.74;98389.05;1804937;78;21438;-56
2022/02/22 04:52:49;;;;;;;8.35;7.12;;;;;;;18.24;37.67;98390.27;1798414;78;21536;-56
2022/02/22 04:55:16;;;;;;;7.92;5.80;;;;;;;18.20;37.69;98389.72;1794859;78;21581;-56
2022/02/22 04:57:43;;;;;;;7.70;6.28;;;;;;;18.23;37.73;98387.25;1789855;78;22804;-56
2022/02/22 05:00:12;;;;;;;7.95;7.15;;;;;;;18.38;37.67;98388.45;1798277;78;20885;-56
2022/02/22 05:02:40;;;;;;;6.85;6.15;;;;;;;18.46;37.44;98390.41;1803835;78;20969;-58
2022/02/22 05:05:08;;;;;;;8.00;7.20;;;;;;;18.47;37.42;98392.08;1795228;78;21020;-56
2022/02/22 05:07:36;;;;;;;9.83;7.40;;;;;;;18.42;37.27;98394.33;1793007;78;21407;-56
2022/02/22 05:10:04;;;;;;;7.85;6.40;;;;;;;18.13;37.46;98401.92;1795418;78;22462;-57
2022/02/22 05:12:33;;;;;;;7.65;6.62;;;;;;;18.15;37.74;98409.26;1808818;78;20957;-57
2022/02/22 05:14:59;;;;;;;12.45;7.45;;;;;;;18.22;37.80;98411.70;1797231;78;21425;-56
2022/02/22 05:17:26;;;;;;;9.15;7.30;;;;;;;18.17;37.78;98418.43;1810793;78;21511;-56
2022/02/22 05:19:53;;;;;;;7.40;6.65;;;;;;;17.99;37.92;98419.64;1793933;78;20885;-55
2022/02/22 05:22:19;;;;;;;8.63;7.72;;;;;;;17.89;38.01;98424.52;1800848;78;22891;-55
2022/02/22 05:24:46;;;;;;;10.10;7.65;;;;;;;17.72;38.26;98427.83;1794928;78;21035;-56
2022/02/22 05:27:13;;;;;;;9.43;7.57;;;;;;;17.77;38.26;98421.61;1795751;78;21299;-56
2022/02/22 05:29:40;;;;;;;11.77;8.10;;;;;;;17.70;38.40;98427.13;1797079;78;21940;-56
2022/02/22 05:32:08;;;;;;;10.35;8.48;;;;;;;17.60;38.46;98421.00;1794165;78;21541;-56
2022/02/22 05:34:36;;;;;;;9.95;8.50;;;;;;;17.61;38.49;98425.31;1774379;78;22504;-55
2022/02/22 05:37:03;;;;;;;13.00;8.95;;;;;;;17.66;38.31;98431.06;1792033;78;21316;-56
2022/02/22 05:39:30;;;;;;;9.20;8.25;;;;;;;17.52;38.54;98436.31;1793729;78;21451;-55
2022/02/22 05:41:57;;;;;;;10.55;8.80;;;;;;;17.67;38.46;98437.57;1780087;78;21517;-57
2022/02/22 05:44:24;;;;;;;10.08;8.83;;;;;;;17.66;38.42;98440.36;1784168;78;21507;-55
2022/02/22 05:46:51;;;;;;;12.15;9.03;;;;;;;17.65;38.35;98444.84;1793166;78;22792;-55
2022/02/22 05:49:18;;;;;;;11.33;8.70;;;;;;;17.60;38.39;98452.39;1778629;78;21527;-56
2022/02/22 05:51:45;;;;;;;10.55;8.73;;;;;;;17.66;38.35;98457.63;1794846;78;21505;-56
2022/02/22 05:54:12;;;;;;;12.13;9.28;;;;;;;17.77;38.37;98461.48;1772262;78;21425;-57
2022/02/22 05:56:39;;;;;;;12.63;9.60;;;;;;;17.84;38.18;98461.31;1775754;79;21497;-56
2022/02/22 05:59:06;;;;;;;11.90;9.88;;;;;;;17.84;38.10;98470.62;1791254;78;22459;-55
2022/02/22 06:01:34;;;;;;;12.57;9.10;;;;;;;17.93;37.98;98473.40;1776346;78;21471;-54
2022/02/22 06:04:00;;;;;;;;;;;;;;;17.83;38.02;98484.84;1789316;79;21455;-54
2022/02/22 06:06:27;;;;;;;14.15;9.68;;;;;;;17.93;38.04;98492.84;1779390;79;20644;-55
2022/02/22 06:08:54;;;;;;;13.43;9.18;;;;;;;18.05;37.81;98493.56;1779928;78;21522;-53
2022/02/22 06:11:20;;;;;;;15.23;10.25;;;;;;;17.88;37.83;98489.29;1764294;79;22541;-53
2022/02/22 06:13:50;;;;;;;;;;;;;;;17.76;37.96;98494.35;1779496;79;21478;-54
2022/02/22 06:16:16;;;;;;;13.03;10.50;;;;;;;17.69;38.07;98494.09;1771947;79;20416;-54
2022/02/22 06:18:43;;;;;;;15.35;10.20;;;;;;;17.63;38.18;98499.96;1784043;79;21467;-54
2022/02/22 06:21:10;;;;;;;17.02;11.90;;;;;;;17.74;38.10;98500.30;1780594;79;20990;-54
2022/02/22 06:23:37;;;;;;;16.12;12.18;;;;;;;17.87;38.02;98503.55;1771371;79;22798;-54
2022/02/22 06:26:03;;;;;;;22.70;15.20;;;;;;;17.90;37.98;98509.93;1780852;78;21392;-54
2022/02/22 06:28:32;;;;;;;19.12;15.60;;;;;;;17.97;37.88;98514.22;1778979;79;21399;-54
2022/02/22 06:30:59;;;;;;;22.05;17.60;;;;;;;18.07;37.98;98516.37;1770698;79;21427;-54
2022/02/22 06:33:26;;;;;;;22.77;18.85;;;;;;;18.26;37.91;98513.34;1780434;79;21590;-54
2022/02/22 06:35:52;;;;;;;27.60;20.35;;;;;;;18.36;37.72;98518.65;1767827;79;22843;-54
2022/02/22 06:38:20;;;;;;;25.45;19.62;;;;;;;18.32;37.69;98518.59;1777298;79;21502;-55
2022/02/22 06:40:46;;;;;;;22.00;17.45;;;;;;;18.22;37.86;98511.45;1776341;79;21308;-54
2022/02/22 06:43:13;;;;;;;17.77;14.53;;;;;;;18.21;37.85;98513.75;1774797;79;21363;-54
2022/02/22 06:45:40;;;;;;;15.88;12.60;;;;;;;18.24;38.03;98517.97;1787963;79;21500;-54
2022/02/22 06:48:07;;;;;;;14.38;11.78;;;;;;;18.48;37.93;98518.85;1781618;79;22528;-54
2022/02/22 06:50:35;;;;;;;15.45;11.18;;;;;;;18.46;37.87;98524.81;1790073;79;20941;-55
2022/02/22 06:53:01;;;;;;;12.88;10.03;;;;;;;18.37;37.85;98524.33;1776751;79;21395;-54
2022/02/22 06:55:28;;;;;;;12.53;9.93;;;;;;;18.42;37.65;98527.38;1786976;78;21049;-54
2022/02/22 06:58:08;;;;;;;11.57;9.13;;;;;;;18.49;37.51;98529.33;1780966;79;21027;-54
2022/02/22 07:00:40;;;;;;;12.82;9.30;;;;;;;18.56;37.51;98524.28;1758760;79;21293;-54
2022/02/22 07:03:07;;;;;;;13.00;9.08;;;;;;;18.45;37.41;98530.59;1783140;78;21384;-53
2022/02/22 07:05:35;;;;;;;11.93;9.23;;;;;;;18.13;37.54;98535.41;1791247;79;21459;-53
2022/02/22 07:08:02;;;;;;;13.65;9.25;;;;;;;18.25;37.39;98532.47;1790484;78;21342;-53
2022/02/22 07:10:29;;;;;;;;;;;;;;;18.12;37.51;98533.72;1787645;79;21506;-53
2022/02/22 07:12:56;;;;;;;11.08;8.45;;;;;;;18.28;37.63;98533.49;1779673;79;22493;-53
2022/02/22 07:15:23;;;;;;;11.75;8.20;;;;;;;18.38;37.79;98539.30;1790360;78;21807;-53
2022/02/22 07:17:58;;;;;;;12.60;8.90;;;;;;;18.48;37.79;98536.98;1784758;79;21418;-53
2022/02/22 07:20:26;;;;;;;10.28;7.90;;;;;;;18.83;37.79;98540.83;1782054;79;22053;-53
2022/02/22 07:22:55;;;;;;;8.88;7.97;;;;;;;19.01;37.02;98546.75;1780775;79;21393;-53
2022/02/22 07:25:22;;;;;;;9.23;7.92;;;;;;;19.19;35.87;98536.14;1776474;78;22834;-54
2022/02/22 07:27:49;;;;;;;9.05;7.30;;;;;;;19.47;36.74;98540.14;1787927;79;21463;-54
2022/02/22 07:30:17;;;;;;;10.20;7.40;;;;;;;19.48;35.50;98545.80;1786558;79;21419;-54
2022/02/22 07:32:44;;;;;;;9.73;7.50;;;;;;;19.47;35.95;98542.81;1779563;79;21620;-54
2022/02/22 07:35:11;;;;;;;10.48;8.30;;;;;;;19.59;35.64;98553.59;1792128;78;21438;-54
2022/02/22 07:37:39;;;;;;;9.93;7.15;;;;;;;19.78;35.54;98556.19;1786290;78;22525;-54
2022/02/22 07:40:08;;;;;;;9.83;7.45;;;;;;;19.75;35.14;98553.81;1787121;78;21067;-54
2022/02/22 07:42:37;;;;;;;12.07;7.12;;;;;;;20.22;34.36;98552.26;1778347;79;21506;-54
2022/02/22 07:45:05;;;;;;;9.60;7.75;;;;;;;20.65;33.62;98551.63;1783967;79;21469;-54
2022/02/22 07:47:32;;;;;;;11.93;7.70;;;;;;;21.02;32.56;98551.36;1787779;79;21577;-54
2022/02/22 07:49:59;;;;;;;7.92;7.12;;;;;;;21.44;32.13;98557.25;1781560;79;22542;-55
2022/02/22 07:52:27;;;;;;;9.13;7.08;;;;;;;21.86;31.31;98559.03;1777664;79;21538;-54
2022/02/22 07:54:55;;;;;;;10.63;7.30;;;;;;;21.56;31.31;98559.13;1783760;79;21541;-54
2022/02/22 07:57:23;;;;;;;7.47;6.47;;;;;;;21.31;31.63;98559.51;1786753;79;21573;-55
2022/02/22 07:59:49;;;;;;;9.73;7.05;;;;;;;21.34;30.74;98561.36;1779581;79;21425;-54
2022/02/22 08:02:16;;;;;;;7.90;5.92;;;;;;;21.82;30.52;98563.55;1780265;79;22453;-53
2022/02/22 08:04:43;;;;;;;7.78;6.20;;;;;;;22.31;29.80;98565.80;1790210;79;21324;-54
2022/02/22 08:07:10;;;;;;;6.40;5.58;;;;;;;22.80;29.13;98562.77;1788020;79;21434;-56
2022/02/22 08:09:37;;;;;;;5.72;4.65;;;;;;;23.18;29.33;98562.52;1785623;79;21494;-55
2022/02/22 08:12:05;;;;;;;7.00;5.50;;;;;;;23.26;28.98;98563.86;1785874;79;21481;-55
2022/02/22 08:14:33;;;;;;;7.47;4.92;;;;;;;23.37;29.08;98561.79;1793210;78;22508;-56
2022/02/22 08:17:00;;;;;;;8.15;4.30;;;;;;;23.52;28.16;98552.82;1793437;78;21493;-55
2022/02/22 08:19:27;;;;;;;5.80;5.10;;;;;;;23.42;28.23;98560.77;1787772;79;20922;-55
2022/02/22 08:21:55;;;;;;;6.90;4.97;;;;;;;23.48;28.38;98557.38;1778844;79;21445;-55
2022/02/22 08:24:22;;;;;;;5.15;4.40;;;;;;;23.37;27.05;98562.62;1783539;78;27481;-55
2022/02/22 08:26:51;;;;;;;6.53;5.00;;;;;;;23.40;26.67;98556.92;1779519;79;22503;-55
2022/02/22 08:29:18;;;;;;;5.25;4.70;;;;;;;23.83;27.78;98563.28;1790114;78;21079;-55
2022/02/22 08:31:44;;;;;;;6.97;4.67;;;;;;;24.00;27.06;98567.52;1783942;79;21387;-55
2022/02/22 08:34:11;;;;;;;10.03;5.45;;;;;;;24.03;26.75;98565.80;1778118;79;21540;-55
2022/02/22 08:36:38;;;;;;;6.05;4.55;;;;;;;23.87;26.58;98549.31;1771167;79;21450;-56
2022/02/22 08:39:04;;;;;;;10.35;4.40;;;;;;;23.95;26.18;98551.11;1783423;79;22504;-56
2022/02/22 08:41:31;;;;;;;5.70;4.33;;;;;;;24.10;25.85;98553.86;1795165;78;21538;-57
2022/02/22 08:43:57;;;;;;;10.08;5.65;;;;;;;23.93;25.28;98553.66;1786689;79;21545;-56
2022/02/22 08:46:24;;;;;;;4.90;3.80;;;;;;;24.01;25.54;98560.30;1795359;79;21465;-56
2022/02/22 08:48:51;;;;;;;5.22;4.03;;;;;;;24.15;25.21;98559.54;1785387;79;21513;-55
2022/02/22 08:51:18;;;;;;;5.47;4.05;;;;;;;24.00;25.31;98565.36;1780299;78;22791;-56
2022/02/22 08:53:44;;;;;;;4.35;3.85;;;;;;;23.89;25.15;98570.62;1785404;78;21464;-58
2022/02/22 08:56:11;;;;;;;7.05;4.30;;;;;;;23.89;25.33;98569.27;1798503;78;21430;-54
2022/02/22 08:58:38;;;;;;;4.37;3.83;;;;;;;23.96;24.14;98573.41;1790465;78;21806;-55
2022/02/22 09:01:05;;;;;;;7.15;3.70;;;;;;;23.88;24.81;98571.13;1789634;78;21450;-54
2022/02/22 09:03:32;;;;;;;3.63;3.10;;;;;;;23.67;23.62;98581.60;1790694;78;22530;-54
2022/02/22 09:05:59;;;;;;;5.83;3.27;;;;;;;23.43;22.84;98572.67;1793624;78;21450;-55
2022/02/22 09:08:27;;;;;;;4.30;3.50;;;;;;;23.48;23.71;98586.89;1793273;78;21534;-55
2022/02/22 09:10:53;;;;;;;4.65;2.65;;;;;;;23.25;24.10;98590.33;1791061;78;20958;-55
2022/02/22 09:13:20;;;;;;;3.55;2.83;;;;;;;23.11;23.31;98587.00;1792722;78;21391;-54
2022/02/22 09:15:49;;;;;;;3.58;2.67;;;;;;;22.90;22.43;98589.69;1793393;78;22488;-60
2022/02/22 09:18:17;;;;;;;4.35;2.90;;;;;;;23.01;22.77;98585.00;1788579;78;21405;-54
2022/02/22 09:20:44;;;;;;;4.87;3.30;;;;;;;23.02;22.26;98579.95;1794077;78;21500;-55
2022/02/22 09:23:11;;;;;;;3.77;2.00;;;;;;;23.25;22.73;98577.43;1791001;77;21499;-56
2022/02/22 09:25:38;;;;;;;3.98;2.10;;;;;;;22.77;20.99;98585.88;1796899;78;22005;-54
2022/02/22 09:28:09;;;;;;;3.40;2.00;;;;;;;22.96;21.35;98584.67;1794865;78;21450;-55
2022/02/22 09:30:37;;;;;;;4.10;2.05;;;;;;;23.03;21.74;98580.30;1792341;78;21379;-55
2022/02/22 09:33:05;;;;;;;2.87;1.92;;;;;;;22.68;21.24;98577.03;1792563;78;21509;-55
2022/02/22 09:35:35;;;;;;;2.22;1.80;;;;;;;22.70;21.41;98575.02;1797668;78;21067;-55
2022/02/22 09:38:01;;;;;;;1.77;1.65;;;;;;;22.40;21.51;98580.55;1793816;78;21565;-55
2022/02/22 09:40:29;;;;;;;3.92;2.47;;;;;;;22.64;21.79;98581.88;1787616;78;22468;-55
2022/02/22 09:42:55;;;;;;;3.03;2.13;;;;;;;22.46;21.80;98583.38;1790237;78;21587;-55
2022/02/22 09:45:22;;;;;;;6.17;3.10;;;;;;;22.46;21.72;98584.72;1785412;78;21398;-56
2022/02/22 09:47:49;;;;;;;4.55;3.72;;;;;;;22.80;21.80;98579.67;1770702;79;21383;-57
2022/02/22 09:50:16;;;;;;;5.67;4.00;;;;;;;22.57;22.26;98578.71;1777630;79;21410;-54
2022/02/22 09:52:43;;;;;;;5.47;3.25;;;;;;;22.69;22.74;98580.84;1784086;78;22674;-56
2022/02/22 09:55:10;;;;;;;3.83;2.10;;;;;;;22.92;21.88;98579.67;1778431;78;21518;-56
2022/02/22 09:57:37;;;;;;;4.20;2.37;;;;;;;22.69;21.23;98582.70;1779247;78;21511;-57
2022/02/22 10:00:20;;;;;;;4.78;3.10;;;;;;;22.50;22.14;98571.33;1770560;79;20954;-57
2022/02/22 10:02:47;;;;;;;5.87;3.75;;;;;;;23.02;22.26;98570.57;1782216;79;21319;-56
2022/02/22 10:05:20;;;;;;;5.33;4.58;;;;;;;23.02;22.50;98574.11;1777656;79;22874;-58
2022/02/22 10:07:59;;;;;;;5.72;3.95;;;;;;;23.05;23.43;98575.63;1777817;79;21404;-56
2022/02/22 10:10:40;;;;;;;5.05;3.30;;;;;;;23.10;23.00;98566.06;1790685;78;20926;-57
2022/02/22 10:13:09;;;;;;;7.00;4.42;;;;;;;23.24;22.89;98562.34;1767033;79;21499;-56
2022/02/22 10:15:41;;;;;;;4.65;4.17;;;;;;;22.81;23.64;98564.42;1772973;79;21399;-57
2022/02/22 10:18:08;;;;;;;6.15;4.12;;;;;;;23.11;23.40;98567.75;1775127;79;22509;-55
2022/02/22 10:20:36;;;;;;;5.03;4.08;;;;;;;23.21;23.18;98569.41;1777444;79;21376;-55
2022/02/22 10:23:04;;;;;;;4.03;3.62;;;;;;;23.15;23.25;98568.73;1778854;79;20855;-58
2022/02/22 10:25:30;;;;;;;4.55;3.90;;;;;;;23.22;23.32;98557.66;1775895;79;21396;-58
2022/02/22 10:27:59;;;;;;;6.85;4.28;;;;;;;23.11;23.38;98549.47;1779206;79;21375;-55
2022/02/22 10:30:39;;;;;;;6.00;3.85;;;;;;;22.99;23.25;98553.52;1784074;79;22436;-57
2022/02/22 10:33:18;;;;;;;5.10;3.25;;;;;;;22.88;22.88;98560.89;1770246;79;21388;-58
2022/02/22 10:35:51;;;;;;;3.60;2.83;;;;;;;22.92;22.52;98554.69;1768879;79;21608;-56
2022/02/22 10:38:23;;;;;;;4.75;2.95;;;;;;;22.86;22.13;98549.51;1776129;79;21100;-56
2022/02/22 10:40:57;;;;;;;5.55;2.95;;;;;;;23.30;22.51;98558.47;1778809;79;21481;-57
2022/02/22 10:43:27;;;;;;;7.10;3.00;;;;;;;23.22;22.08;98554.45;1775251;79;22775;-60
2022/02/22 10:46:00;;;;;;;4.37;2.72;;;;;;;23.20;22.03;98554.31;1778505;78;21545;-60
2022/02/22 10:48:30;;;;;;;6.40;3.15;;;;;;;23.53;21.99;98556.36;1783134;78;21684;-58
2022/02/22 10:50:57;;;;;;;3.98;2.67;;;;;;;23.24;22.17;98557.80;1788638;78;21489;-60
2022/02/22 10:53:36;;;;;;;3.35;2.17;;;;;;;23.43;21.57;98561.95;1785117;78;21521;-58
2022/02/22 10:56:05;;;;;;;4.17;2.20;;;;;;;23.09;20.94;98558.19;1792231;78;22483;-59
2022/02/22 10:58:32;;;;;;;5.45;1.95;;;;;;;23.48;20.76;98559.55;1781684;79;21403;-58
2022/02/22 11:00:59;;;;;;;3.20;1.95;;;;;;;23.15;19.77;98558.86;1707790;82;21616;-60
2022/02/22 11:03:26;;;;;;;2.30;1.60;;;;;;;23.05;19.42;98545.63;1778537;79;21461;-56
2022/02/22 11:05:53;;;;;;;3.33;1.70;;;;;;;22.80;19.58;98556.90;1781952;79;21382;-59
2022/02/22 11:08:28;;;;;;;3.37;1.50;;;;;;;22.87;18.95;98549.03;1786290;79;22774;-58
2022/02/22 11:10:58;;;;;;;2.45;1.57;;;;;;;23.03;19.30;98555.70;1786147;79;21652;-58
2022/02/22 11:13:29;;;;;;;2.45;1.70;;;;;;;23.64;19.63;98555.97;1780188;79;21478;-59
2022/02/22 11:16:09;;;;;;;2.25;1.30;;;;;;;23.52;19.11;98549.31;1786279;79;20992;-59
2022/02/22 11:18:52;;;;;;;3.22;1.77;;;;;;;24.04;18.81;98548.70;1786589;79;21462;-58
2022/02/22 11:21:21;;;;;;;2.95;1.82;;;;;;;23.79;18.96;98550.72;1789223;78;22787;-58
2022/02/22 11:23:48;;;;;;;2.80;1.90;;;;;;;23.88;19.36;98556.37;1784685;78;22007;-58
2022/02/22 11:26:17;;;;;;;3.50;1.75;;;;;;;24.07;19.20;98556.89;1784949;79;21374;-57
2022/02/22 11:28:52;;;;;;;4.83;1.98;;;;;;;23.92;18.87;98560.84;1788201;79;21485;-57
2022/02/22 11:31:20;;;;;;;2.65;1.70;;;;;;;23.92;18.88;98557.34;1793731;78;21477;-56
2022/02/22 11:33:50;;;;;;;3.25;2.12;;;;;;;23.72;18.91;98564.48;1783763;78;22454;-57
2022/02/22 11:36:28;;;;;;;4.50;1.98;;;;;;;23.68;19.04;98559.97;1795209;78;21392;-56